sensor_id;sensor_type;location;lat;lon;timestamp;pressure;altitude;pressure_sealevel;temperature;humidity
11349;BME280;5729;43.570;27.826;2023-03-05T00:00:12;98627.19;;;6.63;100.00
11349;BME280;5729;43.570;27.826;2023-03-05T00:02:38;98618.16;;;6.55;100.00
11349;BME280;5729;43.570;27.826;2023-03-05T00:05:04;98618.06;;;6.52;100.00
11349;BME280;5729;43.570;27.826;2023-03-05T00:07:30;98617.09;;;6.44;100.00
11349;BME280;5729;43.570;27.826;2023-03-05T00:09:58;98607.19;;;6.33;100.00
11349;BME280;5729;43.570;27.826;2023-03-05T00:12:24;98613.59;;;6.28;100.00
11349;BME280;5729;43.570;27.826;2023-03-05T00:14:50;98620.94;;;6.31;100.00
11349;BME280;5729;43.570;27.826;2023-03-05T00:17:15;98611.00;;;6.32;100.00
11349;BME280;5729;43.570;27.826;2023-03-05T00:19:41;98618.69;;;6.33;100.00
11349;BME280;5729;43.570;27.826;2023-03-05T00:22:06;98621.34;;;6.33;100.00
11349;BME280;5729;43.570;27.826;2023-03-05T00:24:31;98607.84;;;6.42;100.00
11349;BME280;5729;43.570;27.826;2023-03-05T00:26:57;98610.16;;;6.43;100.00
11349;BME280;5729;43.570;27.826;2023-03-05T00:29:22;98615.53;;;6.43;100.00
11349;BME280;5729;43.570;27.826;2023-03-05T00:31:48;98606.63;;;6.39;100.00
11349;BME280;5729;43.570;27.826;2023-03-05T00:34:15;98615.63;;;6.47;100.00
11349;BME280;5729;43.570;27.826;2023-03-05T00:36:44;98602.06;;;6.40;100.00
11349;BME280;5729;43.570;27.826;2023-03-05T00:39:10;98602.09;;;6.55;100.00
11349;BME280;5729;43.570;27.826;2023-03-05T00:41:36;98607.22;;;6.61;100.00
11349;BME280;5729;43.570;27.826;2023-03-05T00:44:02;98594.28;;;6.63;100.00
11349;BME280;5729;43.570;27.826;2023-03-05T00:46:27;98596.19;;;6.78;100.00
11349;BME280;5729;43.570;27.826;2023-03-05T00:48:54;98585.59;;;6.81;100.00
11349;BME280;5729;43.570;27.826;2023-03-05T00:51:20;98602.38;;;6.94;100.00
11349;BME280;5729;43.570;27.826;2023-03-05T00:53:46;98592.88;;;6.97;100.00
11349;BME280;5729;43.570;27.826;2023-03-05T00:56:11;98597.13;;;6.98;100.00
11349;BME280;5729;43.570;27.826;2023-03-05T00:58:37;98592.88;;;6.97;100.00
11349;BME280;5729;43.570;27.826;2023-03-05T01:01:04;98586.63;;;6.77;100.00
11349;BME280;5729;43.570;27.826;2023-03-05T01:03:30;98585.09;;;6.91;100.00
11349;BME280;5729;43.570;27.826;2023-03-05T01:05:56;98584.63;;;6.89;100.00
11349;BME280;5729;43.570;27.826;2023-03-05T01:08:23;98590.38;;;6.88;100.00
11349;BME280;5729;43.570;27.826;2023-03-05T01:10:48;98586.75;;;6.96;100.00
11349;BME280;5729;43.570;27.826;2023-03-05T01:13:14;98593.66;;;6.97;100.00
11349;BME280;5729;43.570;27.826;2023-03-05T01:15:39;98591.31;;;6.96;100.00
11349;BME280;5729;43.570;27.826;2023-03-05T01:18:05;98588.38;;;7.01;100.00
11349;BME280;5729;43.570;27.826;2023-03-05T01:20:31;98585.53;;;6.93;100.00
11349;BME280;5729;43.570;27.826;2023-03-05T01:22:56;98590.97;;;6.97;100.00
11349;BME280;5729;43.570;27.826;2023-03-05T01:25:23;98583.00;;;7.01;100.00
11349;BME280;5729;43.570;27.826;2023-03-05T01:27:49;98589.75;;;6.95;100.00
11349;BME280;5729;43.570;27.826;2023-03-05T01:30:15;98580.94;;;6.94;100.00
11349;BME280;5729;43.570;27.826;2023-03-05T01:32:41;98580.59;;;6.96;100.00
11349;BME280;5729;43.570;27.826;2023-03-05T01:35:07;98583.59;;;6.78;100.00
11349;BME280;5729;43.570;27.826;2023-03-05T01:37:33;98572.03;;;6.74;100.00
11349;BME280;5729;43.570;27.826;2023-03-05T01:39:58;98581.44;;;6.84;100.00
11349;BME280;5729;43.570;27.826;2023-03-05T01:42:24;98585.69;;;6.85;100.00
11349;BME280;5729;43.570;27.826;2023-03-05T01:45:19;98580.06;;;6.90;100.00
11349;BME280;5729;43.570;27.826;2023-03-05T01:47:44;98589.66;;;6.91;100.00
11349;BME280;5729;43.570;27.826;2023-03-05T01:50:16;98576.88;;;6.84;100.00
11349;BME280;5729;43.570;27.826;2023-03-05T01:53:05;98578.16;;;6.90;100.00
11349;BME280;5729;43.570;27.826;2023-03-05T01:55:32;98575.31;;;6.83;100.00
11349;BME280;5729;43.570;27.826;2023-03-05T01:58:02;98588.38;;;6.85;100.00
11349;BME280;5729;43.570;27.826;2023-03-05T02:00:46;98583.00;;;6.85;100.00
11349;BME280;5729;43.570;27.826;2023-03-05T02:03:13;98586.47;;;6.85;100.00
11349;BME280;5729;43.570;27.826;2023-03-05T02:05:40;98588.25;;;6.81;100.00
11349;BME280;5729;43.570;27.826;2023-03-05T02:08:11;98594.13;;;6.71;100.00
11349;BME280;5729;43.570;27.826;2023-03-05T02:11:03;98596.34;;;6.69;100.00
11349;BME280;5729;43.570;27.826;2023-03-05T02:13:32;98599.19;;;6.61;100.00
11349;BME280;5729;43.570;27.826;2023-03-05T02:15:59;98594.50;;;6.57;100.00
11349;BME280;5729;43.570;27.826;2023-03-05T02:18:25;98592.88;;;6.53;100.00
11349;BME280;5729;43.570;27.826;2023-03-05T02:23:22;98605.50;;;6.40;100.00
11349;BME280;5729;43.570;27.826;2023-03-05T02:25:48;98596.94;;;6.35;100.00
11349;BME280;5729;43.570;27.826;2023-03-05T02:30:44;98597.97;;;6.30;100.00
11349;BME280;5729;43.570;27.826;2023-03-05T02:33:13;98586.59;;;6.21;100.00
11349;BME280;5729;43.570;27.826;2023-03-05T02:35:39;98601.50;;;6.34;100.00
11349;BME280;5729;43.570;27.826;2023-03-05T02:38:04;98613.59;;;6.28;100.00
11349;BME280;5729;43.570;27.826;2023-03-05T02:40:30;98623.25;;;6.33;100.00
11349;BME280;5729;43.570;27.826;2023-03-05T02:42:55;98629.06;;;6.23;100.00
11349;BME280;5729;43.570;27.826;2023-03-05T02:45:21;98627.63;;;6.25;100.00
11349;BME280;5729;43.570;27.826;2023-03-05T02:47:46;98624.50;;;6.23;100.00
11349;BME280;5729;43.570;27.826;2023-03-05T02:50:11;98618.72;;;6.21;100.00
11349;BME280;5729;43.570;27.826;2023-03-05T02:52:37;98632.09;;;6.21;100.00
11349;BME280;5729;43.570;27.826;2023-03-05T02:55:04;98619.41;;;6.18;100.00
11349;BME280;5729;43.570;27.826;2023-03-05T02:57:29;98614.91;;;6.22;100.00
11349;BME280;5729;43.570;27.826;2023-03-05T02:59:55;98621.94;;;6.27;100.00
11349;BME280;5729;43.570;27.826;2023-03-05T03:02:21;98623.97;;;6.17;100.00
11349;BME280;5729;43.570;27.826;2023-03-05T03:04:46;98631.56;;;6.15;100.00
11349;BME280;5729;43.570;27.826;2023-03-05T03:07:13;98632.88;;;6.22;100.00
11349;BME280;5729;43.570;27.826;2023-03-05T03:09:38;98640.44;;;6.32;100.00
11349;BME280;5729;43.570;27.826;2023-03-05T03:12:05;98625.28;;;6.24;100.00
11349;BME280;5729;43.570;27.826;2023-03-05T03:14:32;98633.53;;;6.31;100.00
11349;BME280;5729;43.570;27.826;2023-03-05T03:17:07;98635.66;;;6.25;100.00
11349;BME280;5729;43.570;27.826;2023-03-05T03:19:32;98621.75;;;6.19;100.00
11349;BME280;5729;43.570;27.826;2023-03-05T03:21:59;98619.44;;;6.06;100.00
11349;BME280;5729;43.570;27.826;2023-03-05T03:24:24;98617.84;;;6.17;100.00
11349;BME280;5729;43.570;27.826;2023-03-05T03:26:50;98623.19;;;6.17;100.00
11349;BME280;5729;43.570;27.826;2023-03-05T03:29:15;98622.53;;;6.20;100.00
11349;BME280;5729;43.570;27.826;2023-03-05T03:31:43;98625.28;;;6.24;100.00
11349;BME280;5729;43.570;27.826;2023-03-05T03:34:11;98630.56;;;6.20;100.00
11349;BME280;5729;43.570;27.826;2023-03-05T03:36:37;98630.00;;;6.14;100.00
11349;BME280;5729;43.570;27.826;2023-03-05T03:39:03;98636.25;;;6.18;100.00
11349;BME280;5729;43.570;27.826;2023-03-05T03:41:30;98631.22;;;6.17;100.00
11349;BME280;5729;43.570;27.826;2023-03-05T03:43:56;98631.56;;;6.15;100.00
11349;BME280;5729;43.570;27.826;2023-03-05T03:46:21;98633.78;;;6.13;100.00
11349;BME280;5729;43.570;27.826;2023-03-05T03:48:49;98632.91;;;6.09;100.00
11349;BME280;5729;43.570;27.826;2023-03-05T03:51:15;98631.34;;;6.08;100.00
11349;BME280;5729;43.570;27.826;2023-03-05T03:53:41;98633.59;;;6.06;100.00
11349;BME280;5729;43.570;27.826;2023-03-05T03:56:06;98633.34;;;5.99;100.00
11349;BME280;5729;43.570;27.826;2023-03-05T03:58:32;98634.13;;;6.00;100.00
11349;BME280;5729;43.570;27.826;2023-03-05T04:00:57;98640.94;;;5.97;100.00
11349;BME280;5729;43.570;27.826;2023-03-05T04:03:23;98636.47;;;5.89;100.00
11349;BME280;5729;43.570;27.826;2023-03-05T04:05:48;98644.50;;;5.89;100.00
11349;BME280;5729;43.570;27.826;2023-03-05T04:08:13;98649.63;;;5.82;100.00
11349;BME280;5729;43.570;27.826;2023-03-05T04:10:39;98648.06;;;5.81;100.00
11349;BME280;5729;43.570;27.826;2023-03-05T04:13:05;98623.19;;;5.80;100.00
11349;BME280;5729;43.570;27.826;2023-03-05T04:15:32;98639.25;;;5.80;100.00
11349;BME280;5729;43.570;27.826;2023-03-05T04:17:58;98629.66;;;5.79;100.00
11349;BME280;5729;43.570;27.826;2023-03-05T04:20:23;98618.63;;;5.81;100.00
11349;BME280;5729;43.570;27.826;2023-03-05T04:22:49;98620.88;;;5.79;100.00
11349;BME280;5729;43.570;27.826;2023-03-05T04:25:14;98614.19;;;5.85;100.00
11349;BME280;5729;43.570;27.826;2023-03-05T04:27:40;98606.06;;;5.81;100.00
11349;BME280;5729;43.570;27.826;2023-03-05T04:30:06;98608.50;;;5.87;100.00
11349;BME280;5729;43.570;27.826;2023-03-05T04:32:32;98615.53;;;5.91;100.00
11349;BME280;5729;43.570;27.826;2023-03-05T04:34:58;98612.97;;;5.95;100.00
11349;BME280;5729;43.570;27.826;2023-03-05T04:37:24;98614.09;;;5.94;100.00
11349;BME280;5729;43.570;27.826;2023-03-05T04:39:51;98626.34;;;5.95;100.00
11349;BME280;5729;43.570;27.826;2023-03-05T04:42:17;98617.31;;;5.99;100.00
11349;BME280;5729;43.570;27.826;2023-03-05T04:44:45;98629.47;;;5.97;100.00
11349;BME280;5729;43.570;27.826;2023-03-05T04:47:11;98622.56;;;5.96;100.00
11349;BME280;5729;43.570;27.826;2023-03-05T04:49:36;98629.69;;;5.92;100.00
11349;BME280;5729;43.570;27.826;2023-03-05T04:52:02;98625.56;;;5.82;100.00
11349;BME280;5729;43.570;27.826;2023-03-05T04:54:27;98634.34;;;5.82;100.00
11349;BME280;5729;43.570;27.826;2023-03-05T04:56:53;98624.88;;;5.73;100.00
11349;BME280;5729;43.570;27.826;2023-03-05T04:59:18;98632.78;;;5.81;100.00
11349;BME280;5729;43.570;27.826;2023-03-05T05:01:44;98631.88;;;5.77;100.00
11349;BME280;5729;43.570;27.826;2023-03-05T05:04:09;98621.09;;;5.86;100.00
11349;BME280;5729;43.570;27.826;2023-03-05T05:06:34;98629.00;;;5.82;100.00
11349;BME280;5729;43.570;27.826;2023-03-05T05:09:00;98631.34;;;5.84;100.00
11349;BME280;5729;43.570;27.826;2023-03-05T05:11:25;98632.91;;;5.85;100.00
11349;BME280;5729;43.570;27.826;2023-03-05T05:13:51;98631.44;;;5.88;100.00
11349;BME280;5729;43.570;27.826;2023-03-05T05:16:17;98635.03;;;5.92;100.00
11349;BME280;5729;43.570;27.826;2023-03-05T05:18:42;98634.13;;;6.00;100.00
11349;BME280;5729;43.570;27.826;2023-03-05T05:21:10;98630.78;;;6.03;100.00
11349;BME280;5729;43.570;27.826;2023-03-05T05:23:36;98632.91;;;6.09;100.00
11349;BME280;5729;43.570;27.826;2023-03-05T05:26:04;98626.09;;;6.12;100.00
11349;BME280;5729;43.570;27.826;2023-03-05T05:28:30;98638.13;;;6.18;100.00
11349;BME280;5729;43.570;27.826;2023-03-05T05:30:56;98635.91;;;6.20;100.00
11349;BME280;5729;43.570;27.826;2023-03-05T05:33:22;98625.84;;;6.29;100.00
11349;BME280;5729;43.570;27.826;2023-03-05T05:35:48;98636.53;;;6.29;100.00
11349;BME280;5729;43.570;27.826;2023-03-05T05:38:13;98634.41;;;6.35;100.00
11349;BME280;5729;43.570;27.826;2023-03-05T05:40:39;98641.19;;;6.32;100.00
11349;BME280;5729;43.570;27.826;2023-03-05T05:43:05;98637.66;;;6.28;100.00
11349;BME280;5729;43.570;27.826;2023-03-05T05:45:30;98644.56;;;6.41;100.00
11349;BME280;5729;43.570;27.826;2023-03-05T05:47:56;98649.75;;;6.50;100.00
11349;BME280;5729;43.570;27.826;2023-03-05T05:50:22;98645.56;;;6.37;100.00
11349;BME280;5729;43.570;27.826;2023-03-05T05:52:47;98653.66;;;6.52;100.00
11349;BME280;5729;43.570;27.826;2023-03-05T05:55:15;98652.75;;;6.61;100.00
11349;BME280;5729;43.570;27.826;2023-03-05T05:57:40;98649.06;;;6.65;100.00
11349;BME280;5729;43.570;27.826;2023-03-05T06:00:08;98651.59;;;6.89;100.00
11349;BME280;5729;43.570;27.826;2023-03-05T06:02:40;98658.25;;;7.23;100.00
11349;BME280;5729;43.570;27.826;2023-03-05T06:05:07;98663.19;;;7.37;100.00
11349;BME280;5729;43.570;27.826;2023-03-05T06:07:35;98654.31;;;7.33;100.00
11349;BME280;5729;43.570;27.826;2023-03-05T06:10:01;98660.41;;;7.34;100.00
11349;BME280;5729;43.570;27.826;2023-03-05T06:12:27;98665.03;;;7.49;100.00
11349;BME280;5729;43.570;27.826;2023-03-05T06:14:52;98663.63;;;7.71;100.00
11349;BME280;5729;43.570;27.826;2023-03-05T06:17:18;98665.97;;;7.72;100.00
11349;BME280;5729;43.570;27.826;2023-03-05T06:19:44;98659.41;;;7.85;100.00
11349;BME280;5729;43.570;27.826;2023-03-05T06:22:09;98673.69;;;7.89;100.00
11349;BME280;5729;43.570;27.826;2023-03-05T06:24:36;98662.66;;;7.94;100.00
11349;BME280;5729;43.570;27.826;2023-03-05T06:27:03;98674.00;;;8.03;100.00
11349;BME280;5729;43.570;27.826;2023-03-05T06:29:28;98672.97;;;7.92;100.00
11349;BME280;5729;43.570;27.826;2023-03-05T06:31:54;98673.72;;;8.09;100.00
11349;BME280;5729;43.570;27.826;2023-03-05T06:34:19;98673.00;;;8.27;100.00
11349;BME280;5729;43.570;27.826;2023-03-05T06:36:44;98666.78;;;8.23;100.00
11349;BME280;5729;43.570;27.826;2023-03-05T06:39:10;98669.78;;;8.37;100.00
11349;BME280;5729;43.570;27.826;2023-03-05T06:41:36;98669.31;;;8.70;100.00
11349;BME280;5729;43.570;27.826;2023-03-05T06:44:01;98679.16;;;9.01;100.00
11349;BME280;5729;43.570;27.826;2023-03-05T06:46:30;98665.84;;;9.08;100.00
11349;BME280;5729;43.570;27.826;2023-03-05T06:48:57;98671.34;;;9.16;100.00
11349;BME280;5729;43.570;27.826;2023-03-05T06:53:50;98671.91;;;9.25;100.00
11349;BME280;5729;43.570;27.826;2023-03-05T06:56:18;98665.00;;;9.46;100.00
11349;BME280;5729;43.570;27.826;2023-03-05T06:58:44;98662.13;;;9.59;100.00
11349;BME280;5729;43.570;27.826;2023-03-05T07:01:11;98663.38;;;9.65;100.00
11349;BME280;5729;43.570;27.826;2023-03-05T07:03:37;98663.06;;;9.70;100.00
11349;BME280;5729;43.570;27.826;2023-03-05T07:06:08;98656.97;;;9.50;100.00
11349;BME280;5729;43.570;27.826;2023-03-05T07:08:34;98660.78;;;9.26;100.00
11349;BME280;5729;43.570;27.826;2023-03-05T07:10:59;98653.59;;;9.11;100.00
11349;BME280;5729;43.570;27.826;2023-03-05T07:13:25;98651.75;;;9.15;100.00
11349;BME280;5729;43.570;27.826;2023-03-05T07:15:51;98649.03;;;9.34;100.00
11349;BME280;5729;43.570;27.826;2023-03-05T07:18:16;98639.75;;;9.32;100.00
11349;BME280;5729;43.570;27.826;2023-03-05T07:20:42;98654.38;;;9.12;100.00
11349;BME280;5729;43.570;27.826;2023-03-05T07:23:07;98642.16;;;9.14;100.00
11349;BME280;5729;43.570;27.826;2023-03-05T07:25:36;98646.84;;;8.98;100.00
11349;BME280;5729;43.570;27.826;2023-03-05T07:28:03;98640.59;;;9.13;100.00
11349;BME280;5729;43.570;27.826;2023-03-05T07:30:33;98638.09;;;9.24;100.00
11349;BME280;5729;43.570;27.826;2023-03-05T07:32:59;98637.78;;;9.52;100.00
11349;BME280;5729;43.570;27.826;2023-03-05T07:35:24;98621.56;;;9.48;100.00
11349;BME280;5729;43.570;27.826;2023-03-05T07:37:50;98634.75;;;9.30;100.00
11349;BME280;5729;43.570;27.826;2023-03-05T07:40:16;98628.94;;;9.28;100.00
11349;BME280;5729;43.570;27.826;2023-03-05T07:42:42;98631.78;;;9.62;100.00
11349;BME280;5729;43.570;27.826;2023-03-05T07:45:08;98625.88;;;9.53;100.00
11349;BME280;5729;43.570;27.826;2023-03-05T07:47:34;98633.69;;;9.35;100.00
11349;BME280;5729;43.570;27.826;2023-03-05T07:50:00;98625.00;;;9.68;100.00
11349;BME280;5729;43.570;27.826;2023-03-05T07:52:25;98626.00;;;9.60;100.00
11349;BME280;5729;43.570;27.826;2023-03-05T07:54:51;98628.56;;;9.53;100.00
11349;BME280;5729;43.570;27.826;2023-03-05T07:57:16;98628.75;;;9.40;100.00
11349;BME280;5729;43.570;27.826;2023-03-05T07:59:42;98632.22;;;9.64;100.00
11349;BME280;5729;43.570;27.826;2023-03-05T08:02:10;98632.69;;;9.96;100.00
11349;BME280;5729;43.570;27.826;2023-03-05T08:04:35;98632.06;;;10.06;100.00
11349;BME280;5729;43.570;27.826;2023-03-05T08:07:01;98623.75;;;10.14;100.00
11349;BME280;5729;43.570;27.826;2023-03-05T08:09:27;98624.91;;;10.43;100.00
11349;BME280;5729;43.570;27.826;2023-03-05T08:11:52;98616.75;;;10.36;100.00
11349;BME280;5729;43.570;27.826;2023-03-05T08:14:18;98626.66;;;10.29;100.00
11349;BME280;5729;43.570;27.826;2023-03-05T08:16:43;98625.25;;;10.12;100.00
11349;BME280;5729;43.570;27.826;2023-03-05T08:19:09;98617.91;;;10.35;100.00
11349;BME280;5729;43.570;27.826;2023-03-05T08:21:35;98619.63;;;10.50;100.00
11349;BME280;5729;43.570;27.826;2023-03-05T08:24:06;98609.66;;;10.54;100.00
11349;BME280;5729;43.570;27.826;2023-03-05T08:26:34;98623.97;;;10.62;100.00
11349;BME280;5729;43.570;27.826;2023-03-05T08:29:00;98620.50;;;10.95;100.00
11349;BME280;5729;43.570;27.826;2023-03-05T08:31:28;98614.38;;;10.95;100.00
11349;BME280;5729;43.570;27.826;2023-03-05T08:33:57;98619.47;;;11.47;100.00
11349;BME280;5729;43.570;27.826;2023-03-05T08:36:23;98620.00;;;12.22;100.00
11349;BME280;5729;43.570;27.826;2023-03-05T08:38:49;98610.97;;;12.69;100.00
11349;BME280;5729;43.570;27.826;2023-03-05T08:41:16;98608.66;;;14.34;100.00
11349;BME280;5729;43.570;27.826;2023-03-05T08:43:42;98589.84;;;15.96;86.17
11349;BME280;5729;43.570;27.826;2023-03-05T08:46:09;98599.09;;;18.80;66.68
11349;BME280;5729;43.570;27.826;2023-03-05T08:48:35;98588.28;;;20.07;53.08
11349;BME280;5729;43.570;27.826;2023-03-05T08:51:09;98587.34;;;22.38;45.82
11349;BME280;5729;43.570;27.826;2023-03-05T08:53:35;98581.50;;;23.60;40.71
11349;BME280;5729;43.570;27.826;2023-03-05T08:56:01;98581.41;;;23.81;38.85
11349;BME280;5729;43.570;27.826;2023-03-05T08:58:26;98581.72;;;25.31;36.40
11349;BME280;5729;43.570;27.826;2023-03-05T09:00:52;98583.91;;;25.51;35.87
11349;BME280;5729;43.570;27.826;2023-03-05T09:03:18;98577.94;;;26.39;33.70
11349;BME280;5729;43.570;27.826;2023-03-05T09:05:43;98572.13;;;25.51;33.40
11349;BME280;5729;43.570;27.826;2023-03-05T09:08:09;98583.72;;;24.98;35.07
11349;BME280;5729;43.570;27.826;2023-03-05T09:10:34;98575.59;;;26.23;34.18
11349;BME280;5729;43.570;27.826;2023-03-05T09:13:00;98569.34;;;26.81;32.96
11349;BME280;5729;43.570;27.826;2023-03-05T09:15:27;98569.84;;;26.12;31.64
11349;BME280;5729;43.570;27.826;2023-03-05T09:17:53;98574.78;;;26.08;31.70
11349;BME280;5729;43.570;27.826;2023-03-05T09:20:18;98567.38;;;26.52;31.15
11349;BME280;5729;43.570;27.826;2023-03-05T09:22:44;98563.34;;;27.32;30.24
11349;BME280;5729;43.570;27.826;2023-03-05T09:25:10;98562.41;;;27.56;30.12
11349;BME280;5729;43.570;27.826;2023-03-05T09:27:37;98556.41;;;26.58;29.69
11349;BME280;5729;43.570;27.826;2023-03-05T09:30:04;98553.44;;;25.22;31.90
11349;BME280;5729;43.570;27.826;2023-03-05T09:32:30;98561.03;;;26.22;31.37
11349;BME280;5729;43.570;27.826;2023-03-05T09:34:56;98557.50;;;26.22;30.97
11349;BME280;5729;43.570;27.826;2023-03-05T09:37:22;98555.63;;;27.22;29.34
11349;BME280;5729;43.570;27.826;2023-03-05T09:39:48;98540.75;;;26.55;29.97
11349;BME280;5729;43.570;27.826;2023-03-05T09:55:43;98529.88;;;26.66;28.92
11349;BME280;5729;43.570;27.826;2023-03-05T09:58:13;98525.28;;;27.07;28.86
11349;BME280;5729;43.570;27.826;2023-03-05T10:00:45;98532.56;;;26.60;28.86
11349;BME280;5729;43.570;27.826;2023-03-05T10:06:30;98529.75;;;25.63;29.21
11349;BME280;5729;43.570;27.826;2023-03-05T10:11:58;98512.00;;;23.68;32.41
11349;BME280;5729;43.570;27.826;2023-03-05T10:14:31;98506.31;;;22.95;33.28
11349;BME280;5729;43.570;27.826;2023-03-05T10:20:39;98488.16;;;23.65;32.72
11349;BME280;5729;43.570;27.826;2023-03-05T10:23:23;98496.91;;;23.14;32.83
11349;BME280;5729;43.570;27.826;2023-03-05T10:28:53;98476.63;;;23.30;33.65
11349;BME280;5729;43.570;27.826;2023-03-05T10:31:40;98476.41;;;22.57;33.31
11349;BME280;5729;43.570;27.826;2023-03-05T10:45:30;98472.53;;;19.19;39.14
11349;BME280;5729;43.570;27.826;2023-03-05T10:48:29;98467.84;;;17.36;42.06
11349;BME280;5729;43.570;27.826;2023-03-05T10:51:20;98461.38;;;17.27;43.28
11349;BME280;5729;43.570;27.826;2023-03-05T10:56:12;98455.28;;;16.96;46.02
11349;BME280;5729;43.570;27.826;2023-03-05T10:58:39;98458.81;;;17.16;44.90
11349;BME280;5729;43.570;27.826;2023-03-05T11:01:05;98431.63;;;17.79;46.38
11349;BME280;5729;43.570;27.826;2023-03-05T11:06:32;98436.13;;;20.63;37.96
11349;BME280;5729;43.570;27.826;2023-03-05T11:09:17;98432.44;;;21.95;37.84
11349;BME280;5729;43.570;27.826;2023-03-05T11:12:12;98424.53;;;22.59;36.41
11349;BME280;5729;43.570;27.826;2023-03-05T11:14:41;98418.56;;;22.52;34.50
11349;BME280;5729;43.570;27.826;2023-03-05T11:19:48;98426.47;;;21.88;34.49
11349;BME280;5729;43.570;27.826;2023-03-05T11:22:17;98421.66;;;21.79;33.50
11349;BME280;5729;43.570;27.826;2023-03-05T11:25:13;98413.94;;;22.08;33.93
11349;BME280;5729;43.570;27.826;2023-03-05T11:27:51;98409.34;;;21.84;34.40
11349;BME280;5729;43.570;27.826;2023-03-05T11:30:38;98400.41;;;22.45;34.24
11349;BME280;5729;43.570;27.826;2023-03-05T11:33:15;98396.03;;;22.26;33.02
11349;BME280;5729;43.570;27.826;2023-03-05T11:35:46;98394.47;;;22.16;33.61
11349;BME280;5729;43.570;27.826;2023-03-05T11:38:23;98400.75;;;20.18;35.67
11349;BME280;5729;43.570;27.826;2023-03-05T11:40:50;98397.88;;;20.09;36.96
11349;BME280;5729;43.570;27.826;2023-03-05T11:43:19;98390.44;;;19.55;37.66
11349;BME280;5729;43.570;27.826;2023-03-05T11:45:45;98387.00;;;18.94;38.96
11349;BME280;5729;43.570;27.826;2023-03-05T11:48:17;98390.34;;;18.17;41.17
11349;BME280;5729;43.570;27.826;2023-03-05T11:50:48;98380.56;;;19.00;41.11
11349;BME280;5729;43.570;27.826;2023-03-05T11:53:31;98382.63;;;18.96;41.32
11349;BME280;5729;43.570;27.826;2023-03-05T11:56:12;98374.56;;;19.92;40.19
11349;BME280;5729;43.570;27.826;2023-03-05T11:59:10;98381.81;;;19.28;39.94
11349;BME280;5729;43.570;27.826;2023-03-05T12:01:45;98378.66;;;19.13;40.46
11349;BME280;5729;43.570;27.826;2023-03-05T12:04:11;98358.41;;;18.49;40.86
11349;BME280;5729;43.570;27.826;2023-03-05T12:06:38;98367.53;;;18.27;42.91
11349;BME280;5729;43.570;27.826;2023-03-05T12:09:26;98362.75;;;18.47;43.48
11349;BME280;5729;43.570;27.826;2023-03-05T12:12:17;98362.94;;;19.63;41.46
11349;BME280;5729;43.570;27.826;2023-03-05T12:17:41;98357.59;;;21.08;35.06
11349;BME280;5729;43.570;27.826;2023-03-05T12:20:18;98349.97;;;20.05;37.01
11349;BME280;5729;43.570;27.826;2023-03-05T12:22:48;98354.13;;;18.97;38.16
11349;BME280;5729;43.570;27.826;2023-03-05T12:25:43;98356.56;;;17.55;41.06
11349;BME280;5729;43.570;27.826;2023-03-05T12:28:16;98359.75;;;16.67;43.55
11349;BME280;5729;43.570;27.826;2023-03-05T12:38:55;98348.41;;;15.61;50.64
11349;BME280;5729;43.570;27.826;2023-03-05T12:46:43;98332.78;;;15.99;50.98
11349;BME280;5729;43.570;27.826;2023-03-05T12:51:55;98329.13;;;15.82;50.12
11349;BME280;5729;43.570;27.826;2023-03-05T12:54:26;98330.09;;;15.69;50.62
11349;BME280;5729;43.570;27.826;2023-03-05T12:56:57;98335.31;;;15.56;52.66
11349;BME280;5729;43.570;27.826;2023-03-05T12:59:28;98310.09;;;15.55;51.10
11349;BME280;5729;43.570;27.826;2023-03-05T13:02:03;98329.41;;;15.61;50.74
11349;BME280;5729;43.570;27.826;2023-03-05T13:04:40;98329.91;;;15.49;51.39
11349;BME280;5729;43.570;27.826;2023-03-05T13:07:16;98322.25;;;15.74;50.72
11349;BME280;5729;43.570;27.826;2023-03-05T13:09:56;98323.94;;;15.91;51.39
11349;BME280;5729;43.570;27.826;2023-03-05T13:12:23;98316.38;;;15.79;49.21
11349;BME280;5729;43.570;27.826;2023-03-05T13:17:27;98319.03;;;15.18;51.10
11349;BME280;5729;43.570;27.826;2023-03-05T13:19:54;98303.59;;;15.12;51.80
11349;BME280;5729;43.570;27.826;2023-03-05T13:22:20;98313.75;;;15.04;50.61
11349;BME280;5729;43.570;27.826;2023-03-05T13:25:34;98303.91;;;15.17;49.39
11349;BME280;5729;43.570;27.826;2023-03-05T13:27:34;98292.13;;;14.97;52.41
11349;BME280;5729;43.570;27.826;2023-03-05T13:30:00;98293.91;;;14.77;54.73
11349;BME280;5729;43.570;27.826;2023-03-05T13:32:27;98298.06;;;14.85;54.58
11349;BME280;5729;43.570;27.826;2023-03-05T13:34:56;98293.69;;;14.95;57.22
11349;BME280;5729;43.570;27.826;2023-03-05T13:37:42;98288.72;;;14.89;57.21
11349;BME280;5729;43.570;27.826;2023-03-05T13:42:47;98282.84;;;14.95;58.02
11349;BME280;5729;43.570;27.826;2023-03-05T13:45:24;98272.34;;;15.00;57.25
11349;BME280;5729;43.570;27.826;2023-03-05T13:47:54;98280.28;;;15.14;55.74
11349;BME280;5729;43.570;27.826;2023-03-05T13:50:39;98276.00;;;14.83;56.65
11349;BME280;5729;43.570;27.826;2023-03-05T13:53:19;98270.25;;;14.77;58.79
11349;BME280;5729;43.570;27.826;2023-03-05T13:55:47;98258.38;;;14.64;56.37
11349;BME280;5729;43.570;27.826;2023-03-05T13:58:52;98264.13;;;14.70;57.87
11349;BME280;5729;43.570;27.826;2023-03-05T14:03:54;98273.22;;;14.49;59.97
11349;BME280;5729;43.570;27.826;2023-03-05T14:06:23;98272.53;;;14.41;59.23
11349;BME280;5729;43.570;27.826;2023-03-05T14:08:51;98274.44;;;14.44;60.08
11349;BME280;5729;43.570;27.826;2023-03-05T14:11:18;98268.28;;;14.40;61.55
11349;BME280;5729;43.570;27.826;2023-03-05T14:13:45;98272.94;;;14.40;59.78
11349;BME280;5729;43.570;27.826;2023-03-05T14:16:23;98273.84;;;14.19;63.50
11349;BME280;5729;43.570;27.826;2023-03-05T14:18:56;98272.97;;;13.77;88.78
11349;BME280;5729;43.570;27.826;2023-03-05T14:21:23;98278.59;;;13.42;100.00
11349;BME280;5729;43.570;27.826;2023-03-05T14:23:51;98267.91;;;13.06;100.00
11349;BME280;5729;43.570;27.826;2023-03-05T14:29:23;98273.81;;;12.48;100.00